Time;durP1;ratioP1;P1;durP2;ratioP2;P2;SDS_P1;SDS_P2;PMS_P1;PMS_P2;Temp;Humidity;BMP_temperature;BMP_pressure;BME280_temperature;BME280_humidity;BME280_pressure;Samples;Min_cycle;Max_cycle;Signal;HPM_P1;HPM_P2
2023/08/07 00:00:00;;;;;;;;;;;;;;;18.85;65.01;96332.06;6151830;28;20348;-70
2023/08/07 00:03:08;;;;;;;;;;;;;;;18.79;64.92;96336.22;6151111;28;19941;-71
2023/08/07 00:06:11;;;;;;;;;;;;;;;18.69;65.10;96327.53;6151808;28;19926;-70
2023/08/07 00:09:12;;;;;;;;;;;;;;;18.64;65.00;96329.84;6151016;28;20463;-70
2023/08/07 00:12:15;;;;;;;;;;;;;;;18.55;65.76;96330.81;6150854;28;19930;-71
2023/08/07 00:15:19;;;;;;;;;;;;;;;18.40;66.39;96317.31;6151609;28;19927;-70
2023/08/07 00:18:24;;;;;;;;;;;;;;;18.21;66.68;96314.91;6151296;28;19926;-70
2023/08/07 00:21:29;;;;;;;;;;;;;;;18.12;67.01;96314.03;6151541;28;19926;-71
2023/08/07 00:24:35;;;;;;;;;;;;;;;18.12;66.80;96314.03;6151488;28;19926;-71
2023/08/07 00:27:38;;;;;;;;;;;;;;;18.22;66.74;96313.88;6133758;28;19926;-71
2023/08/07 00:30:45;;;;;;;;;;;;;;;18.39;66.60;96321.75;6150574;28;19926;-71
2023/08/07 00:33:46;;;;;;;;;;;;;;;18.50;65.75;96333.13;6150603;28;19952;-71
2023/08/07 00:36:47;;;;;;;;;;;;;;;18.51;66.22;96332.13;6150436;28;19949;-71
2023/08/07 00:39:52;;;;;;;;;;;;;;;18.56;65.69;96327.97;6134303;28;19927;-70
2023/08/07 00:42:55;;;;;;;;;;;;;;;18.64;65.89;96335.16;6150810;28;19974;-71
2023/08/07 00:45:56;;;;;;;;;;;;;;;18.78;65.41;96331.91;6133423;29;19926;-70
2023/08/07 00:48:58;;;;;;;;;;;;;;;18.87;65.23;96330.06;6150965;28;19926;-70
2023/08/07 00:52:01;;;;;;;;;;;;;;;18.94;65.28;96325.78;6140902;28;19927;-69
2023/08/07 00:55:05;;;;;;;;;;;;;;;18.94;65.16;96325.78;6127498;29;19930;-71
2023/08/07 00:58:08;;;;;;;;;;;;;;;18.89;65.05;96332.59;6125986;29;19933;-71
2023/08/07 01:01:11;;;;;;;;;;;;;;;18.86;65.15;96331.09;6126828;29;19926;-71
2023/08/07 01:04:18;;;;;;;;;;;;;;;18.91;65.03;96330.56;6126756;29;19930;-70
2023/08/07 01:07:22;;;;;;;;;;;;;;;19.04;64.98;96338.94;6126616;29;20350;-72
2023/08/07 01:10:28;;;;;;;;;;;;;;;19.13;64.60;96329.94;6126545;29;19926;-70
2023/08/07 01:13:32;;;;;;;;;;;;;;;19.03;64.84;96334.63;6126454;29;19933;-70
2023/08/07 01:16:48;;;;;;;;;;;;;;;18.89;64.96;96336.09;6126294;29;19927;-70
2023/08/07 01:19:55;;;;;;;;;;;;;;;18.79;65.57;96332.72;6126189;29;20357;-71
2023/08/07 01:22:56;;;;;;;;;;;;;;;18.69;65.71;96327.53;6109148;29;19926;-72
2023/08/07 01:25:59;;;;;;;;;;;;;;;18.68;65.81;96331.16;6126116;29;19934;-71
2023/08/07 01:29:11;;;;;;;;;;;;;;;18.59;66.37;96329.50;6126008;29;19950;-71
2023/08/07 01:32:18;;;;;;;;;;;;;;;18.63;66.01;96328.19;6125953;29;19927;-70
2023/08/07 01:35:21;;;;;;;;;;;;;;;18.70;65.89;96329.19;6126040;29;19934;-71
2023/08/07 01:38:27;;;;;;;;;;;;;;;18.64;65.83;96329.84;6125994;29;19927;-70
2023/08/07 01:41:29;;;;;;;;;;;;;;;18.59;66.04;96326.81;6124896;29;19927;-70
2023/08/07 01:44:31;;;;;;;;;;;;;;;18.59;65.79;96327.66;6108677;29;19927;-70
2023/08/07 01:47:34;;;;;;;;;;;;;;;18.58;66.04;96325.16;6125689;29;19926;-71
2023/08/07 01:50:38;;;;;;;;;;;;;;;18.65;66.20;96320.84;6125519;29;20021;-71
2023/08/07 01:53:44;;;;;;;;;;;;;;;18.73;66.44;96323.53;6125584;29;19935;-71
2023/08/07 01:56:45;;;;;;;;;;;;;;;18.70;66.07;96323.03;6108821;29;19949;-70
2023/08/07 01:59:48;;;;;;;;;;;;;;;18.81;66.45;96326.25;6125791;29;19931;-71
2023/08/07 02:02:54;;;;;;;;;;;;;;;18.81;66.12;96320.06;6125319;29;19926;-71
2023/08/07 02:05:58;;;;;;;;;;;;;;;18.90;66.16;96323.59;6125307;29;19927;-71
2023/08/07 02:08:59;;;;;;;;;;;;;;;18.95;66.20;96323.94;6124371;29;20021;-70
2023/08/07 02:12:03;;;;;;;;;;;;;;;19.02;65.96;96316.94;6124349;29;19934;-71
2023/08/07 02:15:07;;;;;;;;;;;;;;;19.05;66.08;96317.44;6125069;29;19927;-70
2023/08/07 02:18:08;;;;;;;;;;;;;;;19.07;66.26;96314.59;6124183;29;19926;-71
2023/08/07 02:21:09;;;;;;;;;;;;;;;19.22;66.04;96318.28;6107392;29;19930;-71
2023/08/07 02:24:13;;;;;;;;;;;;;;;19.44;65.67;96318.59;6124288;29;20316;-71
2023/08/07 02:27:18;;;;;;;;;;;;;;;19.76;64.79;96319.56;6124915;29;19926;-71
2023/08/07 02:30:22;;;;;;;;;;;;;;;20.00;64.19;96316.84;6124895;29;19927;-71
2023/08/07 02:33:26;;;;;;;;;;;;;;;20.25;63.62;96320.25;6124597;29;19958;-71
2023/08/07 02:36:27;;;;;;;;;;;;;;;20.47;62.86;96320.53;6124956;29;19927;-70
2023/08/07 02:39:30;;;;;;;;;;;;;;;20.80;62.44;96323.84;6125014;29;20025;-71
2023/08/07 02:42:33;;;;;;;;;;;;;;;20.98;61.82;96316.38;6108079;29;20401;-72
2023/08/07 02:45:34;;;;;;;;;;;;;;;21.00;61.64;96314.34;6107783;29;20052;-70
2023/08/07 02:48:39;;;;;;;;;;;;;;;21.11;61.34;96315.78;6123529;29;19927;-71
2023/08/07 02:51:40;;;;;;;;;;;;;;;21.26;60.82;96319.34;6106725;29;19927;-71
2023/08/07 02:54:44;;;;;;;;;;;;;;;21.49;60.16;96319.34;6127335;29;19927;-71
2023/08/07 02:57:47;;;;;;;;;;;;;;;21.66;59.77;96314.69;6129545;29;19923;-71
2023/08/07 03:00:48;;;;;;;;;;;;;;;21.66;59.51;96309.31;6128484;29;19930;-71
2023/08/07 03:03:51;;;;;;;;;;;;;;;21.71;59.63;96314.13;6127682;29;19926;-70
2023/08/07 03:06:53;;;;;;;;;;;;;;;21.80;59.51;96313.03;6128870;29;19934;-71
2023/08/07 03:09:57;;;;;;;;;;;;;;;21.81;59.35;96322.72;6128698;29;20038;-71
2023/08/07 03:13:00;;;;;;;;;;;;;;;21.91;59.23;96319.75;6111402;29;19927;-72
2023/08/07 03:16:04;;;;;;;;;;;;;;;22.12;58.73;96319.06;6128440;29;19933;-71
2023/08/07 03:19:11;;;;;;;;;;;;;;;22.26;57.93;96331.63;6128658;29;20374;-71
2023/08/07 03:22:17;;;;;;;;;;;;;;;22.24;57.86;96317.59;6112627;29;19927;-71
2023/08/07 03:25:22;;;;;;;;;;;;;;;22.25;57.80;96318.41;6128846;29;19923;-71
2023/08/07 03:28:24;;;;;;;;;;;;;;;22.22;57.85;96321.47;6128467;29;19931;-70
2023/08/07 03:31:25;;;;;;;;;;;;;;;22.31;57.13;96321.19;6128134;29;19926;-70
2023/08/07 03:34:26;;;;;;;;;;;;;;;22.26;57.58;96331.63;6127643;29;20112;-72
2023/08/07 03:37:29;;;;;;;;;;;;;;;22.38;56.96;96330.13;6120673;29;19926;-71
2023/08/07 03:40:33;;;;;;;;;;;;;;;22.46;56.92;96331.06;6128710;29;19931;-71
2023/08/07 03:43:36;;;;;;;;;;;;;;;22.63;56.41;96327.16;6127699;29;20409;-71
2023/08/07 03:46:39;;;;;;;;;;;;;;;22.85;55.87;96328.84;6127827;29;20025;-71
2023/08/07 03:49:43;;;;;;;;;;;;;;;22.98;55.26;96325.50;6128467;29;19927;-71
2023/08/07 03:52:46;;;;;;;;;;;;;;;23.15;55.38;96328.78;6128146;29;20309;-71
2023/08/07 03:55:51;;;;;;;;;;;;;;;23.57;54.29;96319.03;6111136;29;19995;-71
2023/08/07 03:58:52;;;;;;;;;;;;;;;23.61;54.25;96314.09;6127194;29;19927;-71
2023/08/07 04:01:55;;;;;;;;;;;;;;;23.62;54.04;96321.13;6127385;29;19927;-72
2023/08/07 04:04:56;;;;;;;;;;;;;;;23.65;54.08;96326.94;6126426;29;19950;-72
2023/08/07 04:08:00;;;;;;;;;;;;;;;23.73;53.82;96324.16;6127827;29;19930;-72
2023/08/07 04:11:04;;;;;;;;;;;;;;;23.82;53.75;96315.94;6128020;29;20075;-71
2023/08/07 04:14:07;;;;;;;;;;;;;;;23.94;53.13;96323.25;6127241;29;20118;-71
2023/08/07 04:17:13;;;;;;;;;;;;;;;24.00;52.86;96316.25;6127864;29;19926;-71
2023/08/07 04:20:16;;;;;;;;;;;;;;;24.25;52.46;96321.16;6127203;29;19930;-72
2023/08/07 04:23:22;;;;;;;;;;;;;;;24.35;51.88;96313.56;6127186;29;19927;-72
2023/08/07 04:26:23;;;;;;;;;;;;;;;24.33;51.72;96307.56;6126772;29;20012;-71
2023/08/07 04:29:26;;;;;;;;;;;;;;;24.31;52.06;96306.91;6127198;29;19926;-71
2023/08/07 04:32:29;;;;;;;;;;;;;;;24.49;51.63;96315.31;6126083;29;20062;-73
2023/08/07 04:35:32;;;;;;;;;;;;;;;24.61;51.02;96300.25;6126543;29;20017;-73
2023/08/07 04:38:33;;;;;;;;;;;;;;;25.00;49.64;96300.59;6126571;29;19923;-72
2023/08/07 04:41:35;;;;;;;;;;;;;;;25.10;49.36;96301.81;6109323;29;20029;-71
2023/08/07 04:44:36;;;;;;;;;;;;;;;25.17;48.59;96293.81;6126086;29;19933;-71
2023/08/07 04:47:37;;;;;;;;;;;;;;;25.21;48.37;96299.59;6126474;29;20197;-72
2023/08/07 04:50:41;;;;;;;;;;;;;;;25.36;48.29;96302.09;6126947;29;19926;-71
2023/08/07 04:53:42;;;;;;;;;;;;;;;25.57;47.68;96303.78;6126713;29;19927;-71
2023/08/07 04:56:45;;;;;;;;;;;;;;;26.53;46.38;96308.63;6126231;29;19934;-72
2023/08/07 04:59:46;;;;;;;;;;;;;;;28.07;43.92;96304.66;6126350;29;20393;-72
2023/08/07 05:02:54;;;;;;;;;;;;;;;30.43;39.98;96312.56;6126767;29;20361;-72
2023/08/07 05:05:58;;;;;;;;;;;;;;;30.65;39.29;96310.00;6126672;29;19927;-73
2023/08/07 05:09:00;;;;;;;;;;;;;;;32.59;36.12;96307.09;6125178;29;19934;-73
2023/08/07 05:12:03;;;;;;;;;;;;;;;35.13;32.05;96315.97;6125971;29;19926;-72
2023/08/07 05:15:04;;;;;;;;;;;;;;;37.68;29.50;96303.66;6126211;29;20356;-72
2023/08/07 05:18:06;;;;;;;;;;;;;;;39.87;26.94;96310.47;6125361;29;19926;-72
2023/08/07 05:21:08;;;;;;;;;;;;;;;41.23;24.07;96307.34;6125298;29;20408;-73
2023/08/07 05:24:12;;;;;;;;;;;;;;;42.36;23.14;96320.09;6126139;29;19931;-71
2023/08/07 05:27:14;;;;;;;;;;;;;;;43.21;21.70;96317.16;6124433;29;19934;-72
2023/08/07 05:30:18;;;;;;;;;;;;;;;44.55;22.20;96320.00;6093694;29;19926;-72
2023/08/07 05:33:22;;;;;;;;;;;;;;;44.89;20.42;96320.22;6126183;29;20319;-72
2023/08/07 05:36:26;;;;;;;;;;;;;;;44.14;19.22;96315.88;6125702;29;19927;-72
2023/08/07 05:39:31;;;;;;;;;;;;;;;41.05;22.18;96309.94;6108522;29;20024;-73
2023/08/07 05:42:35;;;;;;;;;;;;;;;39.12;24.08;96292.81;6125980;29;20360;-73
2023/08/07 05:45:39;;;;;;;;;;;;;;;37.67;24.65;96305.59;6093931;29;20452;-72
2023/08/07 05:48:48;;;;;;;;;;;;;;;34.86;28.12;96293.19;6109563;29;19926;-73
2023/08/07 05:51:51;;;;;;;;;;;;;;;32.88;31.05;96285.91;6112320;29;19930;-72
2023/08/07 05:54:52;;;;;;;;;;;;;;;31.86;32.23;96275.53;6149187;28;19926;-72
2023/08/07 05:57:55;;;;;;;;;;;;;;;32.82;31.61;96283.38;6148722;28;20312;-72
2023/08/07 06:00:56;;;;;;;;;;;;;;;35.53;27.99;96285.97;6148032;28;20025;-72
2023/08/07 06:03:58;;;;;;;;;;;;;;;36.11;27.12;96293.91;6148625;28;20526;-73
2023/08/07 06:06:59;;;;;;;;;;;;;;;35.83;28.05;96292.53;6149721;28;19922;-73
2023/08/07 06:10:02;;;;;;;;;;;;;;;34.99;28.12;96300.06;6148783;28;19926;-72
2023/08/07 06:13:08;;;;;;;;;;;;;;;34.77;28.75;96291.25;6148145;28;19930;-72
2023/08/07 06:16:09;;;;;;;;;;;;;;;34.01;29.85;96291.59;6148265;28;19922;-72
2023/08/07 06:19:13;;;;;;;;;;;;;;;33.36;30.62;96283.41;6148679;28;19927;-73
2023/08/07 06:22:18;;;;;;;;;;;;;;;32.42;32.10;96281.78;6148534;28;20336;-73
2023/08/07 06:25:24;;;;;;;;;;;;;;;32.39;32.22;96277.66;6148629;28;19952;-73
2023/08/07 06:28:33;;;;;;;;;;;;;;;32.35;32.18;96278.41;6148136;28;19933;-72
2023/08/07 06:31:33;;;;;;;;;;;;;;;31.46;33.78;96277.34;6147741;28;20565;-73
2023/08/07 06:34:37;;;;;;;;;;;;;;;30.92;34.38;96276.06;6131528;29;20415;-73
2023/08/07 06:37:42;;;;;;;;;;;;;;;30.37;34.96;96280.91;6148533;29;19948;-72
2023/08/07 06:40:45;;;;;;;;;;;;;;;29.76;36.62;96283.06;6147661;28;20024;-73
2023/08/07 06:43:52;;;;;;;;;;;;;;;29.13;37.49;96280.09;6148230;28;20415;-73
2023/08/07 06:46:56;;;;;;;;;;;;;;;28.34;38.75;96282.75;6148429;28;19931;-72
2023/08/07 06:49:57;;;;;;;;;;;;;;;28.10;39.25;96274.47;6147764;28;19926;-72
2023/08/07 06:52:58;;;;;;;;;;;;;;;27.93;39.69;96281.53;6147587;28;19927;-72
2023/08/07 06:56:02;;;;;;;;;;;;;;;27.85;40.21;96284.50;6147922;28;19930;-72
2023/08/07 06:59:05;;;;;;;;;;;;;;;28.42;39.49;96285.16;6147563;28;19936;-73
2023/08/07 07:02:11;;;;;;;;;;;;;;;28.99;38.88;96280.28;6148060;28;20068;-72
2023/08/07 07:05:15;;;;;;;;;;;;;;;29.92;37.13;96284.28;6148001;28;20311;-73
2023/08/07 07:08:18;;;;;;;;;;;;;;;30.14;36.71;96280.94;6147642;29;19950;-72
2023/08/07 07:11:20;;;;;;;;;;;;;;;29.51;37.75;96285.13;6147344;28;19926;-71
2023/08/07 07:14:21;;;;;;;;;;;;;;;29.02;38.64;96289.81;6147143;28;19933;-73
2023/08/07 07:17:25;;;;;;;;;;;;;;;28.83;39.02;96289.84;6130551;29;19953;-73
2023/08/07 07:20:27;;;;;;;;;;;;;;;28.72;39.35;96292.50;6146805;28;20388;-74
2023/08/07 07:23:30;;;;;;;;;;;;;;;28.44;39.70;96299.31;6147369;28;19926;-73
2023/08/07 07:26:33;;;;;;;;;;;;;;;27.97;40.55;96298.97;6147467;28;19930;-72
2023/08/07 07:29:34;;;;;;;;;;;;;;;27.57;41.21;96298.44;6147628;28;19927;-72
2023/08/07 07:32:40;;;;;;;;;;;;;;;27.35;42.07;96304.25;6147851;28;19927;-72
2023/08/07 07:35:46;;;;;;;;;;;;;;;27.54;41.63;96297.00;6147735;28;19922;-72
2023/08/07 07:38:48;;;;;;;;;;;;;;;27.86;41.27;96297.00;6148421;28;19930;-72
2023/08/07 07:41:49;;;;;;;;;;;;;;;27.97;41.05;96301.66;6152179;28;20032;-72
2023/08/07 07:44:54;;;;;;;;;;;;;;;28.09;40.86;96302.56;6152126;28;19927;-72
2023/08/07 07:47:55;;;;;;;;;;;;;;;28.69;39.47;96263.19;6152298;28;19933;-72
2023/08/07 07:51:00;;;;;;;;;;;;;;;29.21;39.18;96298.72;6153003;28;19926;-71
2023/08/07 07:54:03;;;;;;;;;;;;;;;29.23;38.91;96299.34;6152695;28;19926;-72
2023/08/07 07:57:05;;;;;;;;;;;;;;;29.17;38.78;96300.25;6151883;28;19931;-73
2023/08/07 08:00:10;;;;;;;;;;;;;;;28.92;39.22;96301.19;6151778;28;20360;-72
2023/08/07 08:03:12;;;;;;;;;;;;;;;28.57;39.80;96285.63;6151637;28;19933;-72
2023/08/07 08:06:16;;;;;;;;;;;;;;;27.99;40.85;96296.84;6151509;28;19926;-72
2023/08/07 08:09:17;;;;;;;;;;;;;;;27.67;41.18;96293.38;6151065;29;19933;-73
2023/08/07 08:12:21;;;;;;;;;;;;;;;27.85;41.30;96295.31;6151326;28;20544;-72
2023/08/07 08:15:25;;;;;;;;;;;;;;;27.80;41.47;96295.16;6134847;29;19930;-72
2023/08/07 08:18:27;;;;;;;;;;;;;;;27.65;41.57;96285.47;6151479;28;19927;-71
2023/08/07 08:21:28;;;;;;;;;;;;;;;27.79;41.52;96288.94;6150941;28;19926;-72
2023/08/07 08:24:34;;;;;;;;;;;;;;;27.77;41.70;96289.13;6150702;29;20401;-72
2023/08/07 08:27:40;;;;;;;;;;;;;;;28.03;41.14;96281.84;6151573;28;19975;-72
2023/08/07 08:30:42;;;;;;;;;;;;;;;28.43;40.46;96286.84;6133765;28;19933;-72
2023/08/07 08:33:46;;;;;;;;;;;;;;;28.74;39.83;96287.72;6151112;28;20073;-72
2023/08/07 08:36:50;;;;;;;;;;;;;;;28.76;39.88;96288.28;6133778;28;19927;-71
2023/08/07 08:39:53;;;;;;;;;;;;;;;28.72;39.57;96289.81;6133952;28;19926;-72
2023/08/07 08:42:57;;;;;;;;;;;;;;;28.94;39.08;96280.13;6150753;28;19926;-72
2023/08/07 08:46:04;;;;;;;;;;;;;;;29.68;37.87;96288.03;6150979;28;19927;-73
2023/08/07 08:49:11;;;;;;;;;;;;;;;30.29;37.07;96288.59;6133631;28;19965;-73
2023/08/07 08:52:20;;;;;;;;;;;;;;;30.34;37.09;96275.16;6149718;28;19970;-73
2023/08/07 08:55:27;;;;;;;;;;;;;;;30.92;35.97;96278.78;6150648;28;20050;-72
2023/08/07 08:58:31;;;;;;;;;;;;;;;31.93;34.86;96281.63;6150707;28;20041;-72
2023/08/07 09:01:36;;;;;;;;;;;;;;;34.35;31.08;96284.75;6133311;28;19926;-72
2023/08/07 09:04:38;;;;;;;;;;;;;;;36.92;27.72;96281.06;6150565;28;19926;-72
2023/08/07 09:07:39;;;;;;;;;;;;;;;37.83;27.11;96278.00;6150249;28;20467;-72
2023/08/07 09:10:41;;;;;;;;;;;;;;;38.97;26.05;96279.28;6149628;28;20036;-72
2023/08/07 09:13:43;;;;;;;;;;;;;;;40.11;25.22;96280.81;6150114;28;19922;-71
2023/08/07 09:16:49;;;;;;;;;;;;;;;41.54;23.81;96287.34;6149832;28;20396;-72
2023/08/07 09:19:53;;;;;;;;;;;;;;;42.64;22.65;96281.16;6132802;28;19926;-73
2023/08/07 09:22:56;;;;;;;;;;;;;;;42.94;22.82;96285.00;6149885;29;20400;-72
2023/08/07 09:26:08;;;;;;;;;;;;;;;44.39;20.00;96282.84;6149613;28;20016;-71
2023/08/07 09:29:09;;;;;;;;;;;;;;;44.84;19.99;96287.91;6149328;28;19977;-72
2023/08/07 09:32:13;;;;;;;;;;;;;;;45.67;18.86;96281.63;6149363;28;20236;-71
2023/08/07 09:35:14;;;;;;;;;;;;;;;46.56;18.12;96283.16;6149226;28;19981;-72
2023/08/07 09:38:17;;;;;;;;;;;;;;;47.49;17.98;96286.16;6149485;28;19926;-73
2023/08/07 09:41:23;;;;;;;;;;;;;;;48.63;17.08;96282.91;6149081;28;20003;-72
2023/08/07 09:44:24;;;;;;;;;;;;;;;48.84;15.68;96281.78;6148613;28;20412;-71
2023/08/07 09:47:25;;;;;;;;;;;;;;;48.08;16.62;96285.44;6149331;28;20009;-72
2023/08/07 09:50:34;;;;;;;;;;;;;;;47.94;16.67;96273.91;6132824;28;19930;-72
2023/08/07 09:53:37;;;;;;;;;;;;;;;48.88;15.69;96275.16;6149019;28;19926;-72
2023/08/07 09:56:43;;;;;;;;;;;;;;;49.33;16.01;96265.41;6149045;28;19926;-72
2023/08/07 09:59:49;;;;;;;;;;;;;;;49.50;15.18;96263.38;6148940;28;19994;-75
2023/08/07 10:02:54;;;;;;;;;;;;;;;49.74;16.05;96262.28;6148110;28;20069;-71
2023/08/07 10:05:59;;;;;;;;;;;;;;;49.73;15.38;96255.88;6148998;28;20308;-72
2023/08/07 10:09:05;;;;;;;;;;;;;;;49.94;15.28;96254.69;6148373;29;20613;-72
2023/08/07 10:12:07;;;;;;;;;;;;;;;50.30;14.63;96251.38;6131326;29;19937;-72
2023/08/07 10:15:08;;;;;;;;;;;;;;;49.75;15.25;96247.94;6147436;28;19927;-71
2023/08/07 10:18:12;;;;;;;;;;;;;;;47.84;16.24;96252.91;6131338;29;19927;-72
2023/08/07 10:21:15;;;;;;;;;;;;;;;46.43;17.00;96242.56;6148313;28;19926;-72
2023/08/07 10:24:20;;;;;;;;;;;;;;;44.00;18.40;96234.88;6148190;28;19987;-73
2023/08/07 10:27:24;;;;;;;;;;;;;;;43.61;19.22;96231.19;6147819;28;19961;-72
2023/08/07 10:30:29;;;;;;;;;;;;;;;44.94;18.38;96229.22;6148196;28;19934;-72
2023/08/07 10:33:31;;;;;;;;;;;;;;;45.80;16.94;96229.66;6147952;28;20418;-73
2023/08/07 10:36:38;;;;;;;;;;;;;;;45.74;17.00;96225.47;6148231;28;20062;-71
2023/08/07 10:40:01;;;;;;;;;;;;;;;46.04;16.95;96219.81;6148638;28;20411;-72
2023/08/07 10:43:17;;;;;;;;;;;;;;;46.08;16.66;96217.94;6147443;28;19933;-73
2023/08/07 10:46:22;;;;;;;;;;;;;;;45.72;16.53;96227.78;6147720;28;19949;-72
2023/08/07 10:49:38;;;;;;;;;;;;;;;44.68;17.34;96223.81;6148031;28;19927;-71
2023/08/07 10:52:39;;;;;;;;;;;;;;;44.72;17.19;96223.97;6147438;28;19926;-72
2023/08/07 10:55:45;;;;;;;;;;;;;;;44.69;17.19;96230.19;6148355;28;19926;-72
2023/08/07 10:58:53;;;;;;;;;;;;;;;44.75;16.91;96218.56;6147229;28;20013;-73
2023/08/07 11:01:54;;;;;;;;;;;;;;;44.81;17.17;96210.84;6147255;28;19934;-71
2023/08/07 11:04:56;;;;;;;;;;;;;;;45.00;17.01;96207.63;6147316;28;20353;-73
2023/08/07 11:08:00;;;;;;;;;;;;;;;45.25;16.28;96203.84;6147681;28;19927;-72
2023/08/07 11:11:05;;;;;;;;;;;;;;;45.44;16.72;96192.25;6147921;28;19926;-72
2023/08/07 11:14:09;;;;;;;;;;;;;;;45.36;16.72;96204.25;6149212;28;20423;-74
2023/08/07 11:17:11;;;;;;;;;;;;;;;44.99;16.97;96201.28;6152662;28;20289;-73
2023/08/07 11:20:12;;;;;;;;;;;;;;;44.31;17.45;96198.53;6152863;28;20361;-72
2023/08/07 11:23:13;;;;;;;;;;;;;;;43.96;17.96;96195.09;6152242;28;20415;-74
2023/08/07 11:26:14;;;;;;;;;;;;;;;44.27;17.81;96191.22;6152653;28;20032;-73
2023/08/07 11:29:18;;;;;;;;;;;;;;;44.37;17.84;96199.19;6151884;28;20012;-74
2023/08/07 11:32:20;;;;;;;;;;;;;;;44.35;17.54;96198.72;6151702;28;19926;-73
2023/08/07 11:35:24;;;;;;;;;;;;;;;43.27;17.81;96193.22;6152451;28;19926;-73
2023/08/07 11:38:34;;;;;;;;;;;;;;;41.72;20.12;96195.16;6151727;28;19926;-73
2023/08/07 11:41:35;;;;;;;;;;;;;;;41.19;20.78;96182.09;6152167;28;20069;-73
2023/08/07 11:44:36;;;;;;;;;;;;;;;41.37;21.01;96192.16;6151083;28;19927;-73
2023/08/07 11:47:37;;;;;;;;;;;;;;;41.65;20.95;96192.84;6151470;28;20411;-73
2023/08/07 11:50:42;;;;;;;;;;;;;;;40.76;21.75;96179.78;6151980;28;20013;-73
2023/08/07 11:53:46;;;;;;;;;;;;;;;39.98;22.66;96176.94;6151390;28;20303;-73
2023/08/07 11:56:53;;;;;;;;;;;;;;;38.81;24.04;96177.72;6152144;29;20013;-73
2023/08/07 11:59:58;;;;;;;;;;;;;;;37.92;24.96;96183.72;6151676;28;20387;-73
2023/08/07 12:03:01;;;;;;;;;;;;;;;38.40;24.85;96183.75;6150849;29;19927;-73
2023/08/07 12:06:08;;;;;;;;;;;;;;;38.69;24.48;96185.56;6151979;29;19926;-73
2023/08/07 12:09:12;;;;;;;;;;;;;;;38.04;25.02;96182.53;6151313;28;20451;-73
2023/08/07 12:12:19;;;;;;;;;;;;;;;36.68;26.35;96170.44;6151222;28;19926;-74
2023/08/07 12:15:27;;;;;;;;;;;;;;;35.17;28.25;96175.72;6150663;28;19926;-73
2023/08/07 12:18:29;;;;;;;;;;;;;;;34.07;29.83;96167.75;6150139;28;19934;-73
2023/08/07 12:21:33;;;;;;;;;;;;;;;34.05;29.82;96164.44;6133602;28;19926;-72
2023/08/07 12:24:40;;;;;;;;;;;;;;;34.85;28.72;96162.28;6134446;29;19934;-74
2023/08/07 12:27:41;;;;;;;;;;;;;;;35.56;27.88;96166.97;6150534;28;19927;-73
2023/08/07 12:30:46;;;;;;;;;;;;;;;35.78;28.09;96168.56;6151218;28;20304;-73
2023/08/07 12:33:50;;;;;;;;;;;;;;;35.96;28.04;96165.22;6150956;28;20024;-73
2023/08/07 12:36:55;;;;;;;;;;;;;;;35.91;28.13;96157.03;6150784;28;19926;-73
2023/08/07 12:39:59;;;;;;;;;;;;;;;35.49;28.76;96155.44;6150875;28;19986;-73
2023/08/07 12:43:05;;;;;;;;;;;;;;;35.30;28.91;96158.75;6150634;28;19990;-74
2023/08/07 12:46:08;;;;;;;;;;;;;;;35.43;28.81;96162.03;6150625;28;19926;-73
2023/08/07 12:49:11;;;;;;;;;;;;;;;35.22;28.97;96156.56;6149748;28;20349;-73
2023/08/07 12:52:12;;;;;;;;;;;;;;;34.84;29.54;96161.44;6141007;28;19926;-73
2023/08/07 12:55:16;;;;;;;;;;;;;;;34.51;29.61;96156.41;6126557;29;19930;-72
2023/08/07 12:58:23;;;;;;;;;;;;;;;34.41;29.48;96149.84;6126391;29;19923;-73
2023/08/07 13:01:25;;;;;;;;;;;;;;;34.41;29.17;96147.09;6126297;29;19927;-73
2023/08/07 13:04:33;;;;;;;;;;;;;;;34.41;29.15;96141.66;6126400;29;19926;-74
2023/08/07 13:07:39;;;;;;;;;;;;;;;34.47;29.19;96134.28;6126372;29;20324;-74
2023/08/07 13:10:44;;;;;;;;;;;;;;;34.24;29.67;96134.78;6125877;29;19927;-73
2023/08/07 13:13:48;;;;;;;;;;;;;;;34.11;30.36;96136.06;6126430;29;20452;-73
2023/08/07 13:16:49;;;;;;;;;;;;;;;34.01;30.50;96144.22;6126296;29;19927;-75
2023/08/07 13:19:53;;;;;;;;;;;;;;;33.97;30.62;96141.16;6126218;29;19926;-73
2023/08/07 13:23:01;;;;;;;;;;;;;;;33.95;30.71;96138.72;6125727;29;20053;-74
2023/08/07 13:26:05;;;;;;;;;;;;;;;33.98;30.75;96137.38;6126034;29;19934;-73
2023/08/07 13:29:10;;;;;;;;;;;;;;;33.76;31.32;96135.63;6126067;29;19922;-74
2023/08/07 13:32:14;;;;;;;;;;;;;;;33.22;31.74;96141.25;6125664;29;19931;-72
2023/08/07 13:35:22;;;;;;;;;;;;;;;32.80;32.71;96133.78;6125608;29;19923;-74
2023/08/07 13:38:24;;;;;;;;;;;;;;;32.41;33.18;96141.25;6125582;29;20451;-72
2023/08/07 13:41:26;;;;;;;;;;;;;;;32.08;33.55;96145.78;6124749;29;19936;-72
2023/08/07 13:44:27;;;;;;;;;;;;;;;31.72;33.90;96142.56;6124511;29;20396;-73
2023/08/07 13:47:33;;;;;;;;;;;;;;;31.29;34.59;96146.81;6125606;29;20397;-72
2023/08/07 13:50:39;;;;;;;;;;;;;;;30.70;36.05;96138.22;6125159;29;19986;-73
2023/08/07 13:53:44;;;;;;;;;;;;;;;30.12;36.63;96141.97;6145875;28;20013;-73
2023/08/07 13:56:50;;;;;;;;;;;;;;;29.84;37.01;96156.31;6149084;28;19926;-73
2023/08/07 13:59:56;;;;;;;;;;;;;;;29.77;37.21;96151.84;6148798;28;19922;-73
2023/08/07 14:03:01;;;;;;;;;;;;;;;29.67;38.17;96151.63;6149018;28;19926;-73
2023/08/07 14:06:03;;;;;;;;;;;;;;;29.46;37.49;96161.16;6147558;29;19926;-74
2023/08/07 14:09:09;;;;;;;;;;;;;;;29.31;37.70;96166.22;6148664;28;19926;-72
2023/08/07 14:12:13;;;;;;;;;;;;;;;29.13;38.60;96166.31;6148853;28;19926;-73
2023/08/07 14:15:16;;;;;;;;;;;;;;;29.01;39.21;96167.09;6148517;28;19926;-73
2023/08/07 14:18:20;;;;;;;;;;;;;;;29.03;38.91;96169.63;6147500;28;19990;-72
2023/08/07 14:21:27;;;;;;;;;;;;;;;29.17;38.82;96164.81;6148125;28;20621;-73
2023/08/07 14:24:30;;;;;;;;;;;;;;;29.26;39.72;96176.94;6147671;28;19926;-73
2023/08/07 14:27:34;;;;;;;;;;;;;;;29.13;39.17;96178.00;6147795;28;19934;-73
2023/08/07 14:30:37;;;;;;;;;;;;;;;29.04;39.10;96180.19;6148816;28;20344;-72
2023/08/07 14:33:38;;;;;;;;;;;;;;;28.91;39.85;96185.81;6147820;28;19936;-72
2023/08/07 14:36:42;;;;;;;;;;;;;;;28.78;39.97;96191.41;6147543;28;19927;-73
2023/08/07 14:39:44;;;;;;;;;;;;;;;28.62;40.20;96192.88;6147884;28;20336;-73
2023/08/07 14:42:51;;;;;;;;;;;;;;;28.36;40.67;96194.06;6147664;28;19926;-72
2023/08/07 14:45:57;;;;;;;;;;;;;;;28.13;41.21;96192.88;6148167;28;19930;-72
2023/08/07 14:49:01;;;;;;;;;;;;;;;27.90;41.94;96200.84;6147736;28;19922;-72
2023/08/07 14:52:05;;;;;;;;;;;;;;;27.64;42.12;96202.75;6148643;28;19930;-72
2023/08/07 14:55:08;;;;;;;;;;;;;;;27.39;42.21;96204.66;6147720;28;19926;-73
2023/08/07 14:58:12;;;;;;;;;;;;;;;27.19;42.47;96208.38;6147271;28;19932;-72
2023/08/07 15:01:34;;;;;;;;;;;;;;;27.04;43.59;96224.03;6147580;28;19927;-73
2023/08/07 15:04:42;;;;;;;;;;;;;;;26.88;42.98;96223.50;6147964;28;19960;-73
2023/08/07 15:07:51;;;;;;;;;;;;;;;26.69;43.61;96221.75;6147633;28;19923;-73
2023/08/07 15:10:58;;;;;;;;;;;;;;;26.51;43.87;96217.09;6146899;28;19926;-73
2023/08/07 15:14:01;;;;;;;;;;;;;;;26.38;44.15;96231.47;6146447;28;20401;-72
2023/08/07 15:17:05;;;;;;;;;;;;;;;26.26;45.28;96226.94;6148200;28;19926;-72
2023/08/07 15:20:09;;;;;;;;;;;;;;;26.16;45.06;96238.19;6147335;28;19922;-73
2023/08/07 15:23:11;;;;;;;;;;;;;;;26.09;45.24;96237.38;6147214;28;19934;-73
2023/08/07 15:26:14;;;;;;;;;;;;;;;25.91;45.51;96238.06;6147897;28;19926;-74
2023/08/07 15:29:19;;;;;;;;;;;;;;;25.81;45.85;96234.94;6147909;28;20337;-73
2023/08/07 15:32:22;;;;;;;;;;;;;;;25.71;44.94;96236.19;6147511;28;19933;-73
2023/08/07 15:35:29;;;;;;;;;;;;;;;25.67;45.53;96236.81;6147925;28;19926;-72
2023/08/07 15:38:38;;;;;;;;;;;;;;;25.52;45.81;96243.25;6147570;28;19927;-74
2023/08/07 15:41:43;;;;;;;;;;;;;;;25.43;46.55;96249.06;6146624;28;19927;-72
2023/08/07 15:44:51;;;;;;;;;;;;;;;25.33;46.57;96244.09;6147915;28;20019;-72
2023/08/07 15:47:53;;;;;;;;;;;;;;;25.24;45.95;96245.34;6147459;28;19957;-73
2023/08/07 15:50:56;;;;;;;;;;;;;;;25.14;46.51;96255.66;6147616;28;19930;-72
2023/08/07 15:54:02;;;;;;;;;;;;;;;25.06;46.29;96249.44;6147229;28;19989;-73
2023/08/07 15:57:10;;;;;;;;;;;;;;;25.00;46.79;96244.88;6147167;28;19981;-72